sensor_id;sensor_type;location;lat;lon;timestamp;P1;durP1;ratioP1;P2;durP2;ratioP2
52618;SDS011;38513;53.234;6.568;2024-03-02T00:02:11;14.32;;;8.88;;
52618;SDS011;38513;53.234;6.568;2024-03-02T00:04:40;14.38;;;9.35;;
52618;SDS011;38513;53.234;6.568;2024-03-02T00:07:10;16.95;;;10.40;;
52618;SDS011;38513;53.234;6.568;2024-03-02T00:09:36;23.73;;;16.10;;
52618;SDS011;38513;53.234;6.568;2024-03-02T00:12:07;12.95;;;8.05;;
52618;SDS011;38513;53.234;6.568;2024-03-02T00:14:38;10.90;;;7.00;;
52618;SDS011;38513;53.234;6.568;2024-03-02T00:17:04;11.65;;;6.57;;
52618;SDS011;38513;53.234;6.568;2024-03-02T00:19:30;14.57;;;8.40;;
52618;SDS011;38513;53.234;6.568;2024-03-02T00:21:57;10.75;;;6.03;;
52618;SDS011;38513;53.234;6.568;2024-03-02T00:24:31;13.00;;;8.18;;
52618;SDS011;38513;53.234;6.568;2024-03-02T00:27:01;16.40;;;10.75;;
52618;SDS011;38513;53.234;6.568;2024-03-02T00:29:29;16.80;;;11.23;;
52618;SDS011;38513;53.234;6.568;2024-03-02T00:31:56;10.75;;;5.70;;
52618;SDS011;38513;53.234;6.568;2024-03-02T00:34:23;9.05;;;5.32;;
52618;SDS011;38513;53.234;6.568;2024-03-02T00:36:53;10.25;;;6.22;;
52618;SDS011;38513;53.234;6.568;2024-03-02T00:39:20;9.27;;;5.03;;
52618;SDS011;38513;53.234;6.568;2024-03-02T00:41:46;10.30;;;5.87;;
52618;SDS011;38513;53.234;6.568;2024-03-02T00:44:13;11.20;;;6.57;;
52618;SDS011;38513;53.234;6.568;2024-03-02T00:46:39;13.60;;;7.93;;
52618;SDS011;38513;53.234;6.568;2024-03-02T00:49:24;8.57;;;4.80;;
52618;SDS011;38513;53.234;6.568;2024-03-02T00:51:52;11.23;;;6.07;;
52618;SDS011;38513;53.234;6.568;2024-03-02T00:54:19;8.35;;;4.30;;
52618;SDS011;38513;53.234;6.568;2024-03-02T00:56:49;11.43;;;6.63;;
52618;SDS011;38513;53.234;6.568;2024-03-02T00:59:15;8.87;;;4.90;;
52618;SDS011;38513;53.234;6.568;2024-03-02T01:01:41;9.50;;;5.65;;
52618;SDS011;38513;53.234;6.568;2024-03-02T01:04:08;9.43;;;5.40;;
52618;SDS011;38513;53.234;6.568;2024-03-02T01:06:51;10.60;;;6.03;;
52618;SDS011;38513;53.234;6.568;2024-03-02T01:09:20;9.23;;;5.38;;
52618;SDS011;38513;53.234;6.568;2024-03-02T01:11:47;8.43;;;4.75;;
52618;SDS011;38513;53.234;6.568;2024-03-02T01:14:13;11.13;;;6.30;;
52618;SDS011;38513;53.234;6.568;2024-03-02T01:16:39;9.23;;;5.35;;
52618;SDS011;38513;53.234;6.568;2024-03-02T01:19:08;10.98;;;6.60;;
52618;SDS011;38513;53.234;6.568;2024-03-02T01:21:35;9.07;;;5.00;;
52618;SDS011;38513;53.234;6.568;2024-03-02T01:24:01;8.40;;;4.60;;
52618;SDS011;38513;53.234;6.568;2024-03-02T01:26:30;8.73;;;5.32;;
52618;SDS011;38513;53.234;6.568;2024-03-02T01:28:59;8.82;;;4.70;;
52618;SDS011;38513;53.234;6.568;2024-03-02T01:31:26;9.03;;;5.07;;
52618;SDS011;38513;53.234;6.568;2024-03-02T01:33:54;8.73;;;5.28;;
52618;SDS011;38513;53.234;6.568;2024-03-02T01:36:21;7.78;;;4.72;;
52618;SDS011;38513;53.234;6.568;2024-03-02T01:38:47;9.75;;;5.40;;
52618;SDS011;38513;53.234;6.568;2024-03-02T01:41:20;9.98;;;5.22;;
52618;SDS011;38513;53.234;6.568;2024-03-02T01:43:46;9.25;;;5.07;;
52618;SDS011;38513;53.234;6.568;2024-03-02T01:46:16;8.00;;;4.72;;
52618;SDS011;38513;53.234;6.568;2024-03-02T01:48:45;8.63;;;5.15;;
52618;SDS011;38513;53.234;6.568;2024-03-02T01:51:11;9.05;;;4.95;;
52618;SDS011;38513;53.234;6.568;2024-03-02T01:53:44;10.18;;;6.50;;
52618;SDS011;38513;53.234;6.568;2024-03-02T01:56:12;7.75;;;4.82;;
52618;SDS011;38513;53.234;6.568;2024-03-02T01:58:39;9.43;;;5.28;;
52618;SDS011;38513;53.234;6.568;2024-03-02T02:01:05;10.27;;;5.10;;
52618;SDS011;38513;53.234;6.568;2024-03-02T02:03:34;8.73;;;4.80;;
52618;SDS011;38513;53.234;6.568;2024-03-02T02:06:02;9.00;;;5.60;;
52618;SDS011;38513;53.234;6.568;2024-03-02T02:08:28;7.93;;;4.80;;
52618;SDS011;38513;53.234;6.568;2024-03-02T02:10:57;8.27;;;4.90;;
52618;SDS011;38513;53.234;6.568;2024-03-02T02:13:26;8.15;;;4.90;;
52618;SDS011;38513;53.234;6.568;2024-03-02T02:15:53;8.43;;;4.75;;
52618;SDS011;38513;53.234;6.568;2024-03-02T02:18:19;8.13;;;4.82;;
52618;SDS011;38513;53.234;6.568;2024-03-02T02:20:49;8.77;;;5.22;;
52618;SDS011;38513;53.234;6.568;2024-03-02T02:23:16;9.15;;;4.90;;
52618;SDS011;38513;53.234;6.568;2024-03-02T02:25:43;8.52;;;4.70;;
52618;SDS011;38513;53.234;6.568;2024-03-02T02:28:09;8.40;;;4.53;;
52618;SDS011;38513;53.234;6.568;2024-03-02T02:30:35;9.43;;;4.93;;
52618;SDS011;38513;53.234;6.568;2024-03-02T02:33:04;8.30;;;4.53;;
52618;SDS011;38513;53.234;6.568;2024-03-02T02:35:33;7.72;;;4.70;;
52618;SDS011;38513;53.234;6.568;2024-03-02T02:38:00;8.70;;;4.60;;
52618;SDS011;38513;53.234;6.568;2024-03-02T02:40:29;8.55;;;4.53;;
52618;SDS011;38513;53.234;6.568;2024-03-02T02:42:56;8.35;;;4.55;;
52618;SDS011;38513;53.234;6.568;2024-03-02T02:45:32;8.23;;;4.80;;
52618;SDS011;38513;53.234;6.568;2024-03-02T02:47:58;8.23;;;4.35;;
52618;SDS011;38513;53.234;6.568;2024-03-02T02:50:28;8.43;;;4.28;;
52618;SDS011;38513;53.234;6.568;2024-03-02T02:52:56;8.63;;;4.38;;
52618;SDS011;38513;53.234;6.568;2024-03-02T02:55:25;7.53;;;4.40;;
52618;SDS011;38513;53.234;6.568;2024-03-02T02:57:51;8.45;;;4.70;;
52618;SDS011;38513;53.234;6.568;2024-03-02T03:00:19;6.80;;;3.97;;
52618;SDS011;38513;53.234;6.568;2024-03-02T03:02:48;6.90;;;3.90;;
52618;SDS011;38513;53.234;6.568;2024-03-02T03:05:15;8.03;;;3.90;;
52618;SDS011;38513;53.234;6.568;2024-03-02T03:07:41;6.72;;;3.67;;
52618;SDS011;38513;53.234;6.568;2024-03-02T03:10:17;6.80;;;3.93;;
52618;SDS011;38513;53.234;6.568;2024-03-02T03:12:45;7.75;;;3.70;;
52618;SDS011;38513;53.234;6.568;2024-03-02T03:15:15;6.65;;;3.50;;
52618;SDS011;38513;53.234;6.568;2024-03-02T03:17:44;7.50;;;3.30;;
52618;SDS011;38513;53.234;6.568;2024-03-02T03:20:12;7.53;;;3.17;;
52618;SDS011;38513;53.234;6.568;2024-03-02T03:22:44;6.17;;;2.80;;
52618;SDS011;38513;53.234;6.568;2024-03-02T03:25:13;6.22;;;2.80;;
52618;SDS011;38513;53.234;6.568;2024-03-02T03:27:39;6.10;;;2.80;;
52618;SDS011;38513;53.234;6.568;2024-03-02T03:30:06;6.95;;;2.88;;
52618;SDS011;38513;53.234;6.568;2024-03-02T03:32:33;6.68;;;2.90;;
52618;SDS011;38513;53.234;6.568;2024-03-02T03:34:59;5.70;;;2.20;;
52618;SDS011;38513;53.234;6.568;2024-03-02T03:37:25;7.30;;;2.60;;
52618;SDS011;38513;53.234;6.568;2024-03-02T03:40:01;6.50;;;2.95;;
52618;SDS011;38513;53.234;6.568;2024-03-02T03:42:32;6.55;;;2.72;;
52618;SDS011;38513;53.234;6.568;2024-03-02T03:45:00;6.63;;;2.65;;
52618;SDS011;38513;53.234;6.568;2024-03-02T03:47:26;6.53;;;2.67;;
52618;SDS011;38513;53.234;6.568;2024-03-02T03:49:53;5.95;;;2.60;;
52618;SDS011;38513;53.234;6.568;2024-03-02T03:52:22;6.70;;;2.75;;
52618;SDS011;38513;53.234;6.568;2024-03-02T03:54:48;5.40;;;2.70;;
52618;SDS011;38513;53.234;6.568;2024-03-02T03:57:17;6.65;;;2.75;;
52618;SDS011;38513;53.234;6.568;2024-03-02T03:59:43;5.95;;;2.78;;
52618;SDS011;38513;53.234;6.568;2024-03-02T04:02:12;7.50;;;2.78;;
52618;SDS011;38513;53.234;6.568;2024-03-02T04:04:38;6.22;;;2.80;;
52618;SDS011;38513;53.234;6.568;2024-03-02T04:07:05;7.18;;;3.08;;
52618;SDS011;38513;53.234;6.568;2024-03-02T04:09:31;6.88;;;2.75;;
52618;SDS011;38513;53.234;6.568;2024-03-02T04:11:57;6.18;;;2.67;;
52618;SDS011;38513;53.234;6.568;2024-03-02T04:14:24;6.53;;;2.90;;
52618;SDS011;38513;53.234;6.568;2024-03-02T04:16:52;7.88;;;3.10;;
52618;SDS011;38513;53.234;6.568;2024-03-02T04:19:18;5.70;;;2.80;;
52618;SDS011;38513;53.234;6.568;2024-03-02T04:21:45;5.88;;;2.97;;
52618;SDS011;38513;53.234;6.568;2024-03-02T04:24:11;6.88;;;3.17;;
52618;SDS011;38513;53.234;6.568;2024-03-02T04:26:37;6.40;;;3.10;;
52618;SDS011;38513;53.234;6.568;2024-03-02T04:29:04;6.32;;;2.80;;
52618;SDS011;38513;53.234;6.568;2024-03-02T04:31:30;5.95;;;2.85;;
52618;SDS011;38513;53.234;6.568;2024-03-02T04:33:59;5.85;;;2.85;;
52618;SDS011;38513;53.234;6.568;2024-03-02T04:36:28;6.57;;;2.97;;
52618;SDS011;38513;53.234;6.568;2024-03-02T04:38:55;6.28;;;3.05;;
52618;SDS011;38513;53.234;6.568;2024-03-02T04:41:21;6.77;;;2.97;;
52618;SDS011;38513;53.234;6.568;2024-03-02T04:43:47;7.03;;;2.92;;
52618;SDS011;38513;53.234;6.568;2024-03-02T04:46:16;6.93;;;3.08;;
52618;SDS011;38513;53.234;6.568;2024-03-02T04:48:42;5.82;;;2.80;;
52618;SDS011;38513;53.234;6.568;2024-03-02T04:51:09;7.70;;;3.05;;
52618;SDS011;38513;53.234;6.568;2024-03-02T04:53:38;7.47;;;3.20;;
52618;SDS011;38513;53.234;6.568;2024-03-02T04:56:07;7.03;;;2.90;;
52618;SDS011;38513;53.234;6.568;2024-03-02T04:58:54;6.80;;;2.95;;
52618;SDS011;38513;53.234;6.568;2024-03-02T05:01:21;6.05;;;2.70;;
52618;SDS011;38513;53.234;6.568;2024-03-02T05:03:47;6.88;;;2.78;;
52618;SDS011;38513;53.234;6.568;2024-03-02T05:06:13;7.05;;;3.10;;
52618;SDS011;38513;53.234;6.568;2024-03-02T05:08:42;6.60;;;2.95;;
52618;SDS011;38513;53.234;6.568;2024-03-02T05:11:10;6.78;;;2.88;;
52618;SDS011;38513;53.234;6.568;2024-03-02T05:14:11;6.55;;;3.13;;
52618;SDS011;38513;53.234;6.568;2024-03-02T05:16:37;5.60;;;3.03;;
52618;SDS011;38513;53.234;6.568;2024-03-02T05:19:04;7.65;;;3.20;;
52618;SDS011;38513;53.234;6.568;2024-03-02T05:21:32;7.68;;;2.95;;
52618;SDS011;38513;53.234;6.568;2024-03-02T05:23:58;6.45;;;2.75;;
52618;SDS011;38513;53.234;6.568;2024-03-02T05:26:27;7.10;;;3.00;;
52618;SDS011;38513;53.234;6.568;2024-03-02T05:28:56;6.30;;;2.63;;
52618;SDS011;38513;53.234;6.568;2024-03-02T05:31:22;6.97;;;2.80;;
52618;SDS011;38513;53.234;6.568;2024-03-02T05:33:49;6.73;;;3.00;;
52618;SDS011;38513;53.234;6.568;2024-03-02T05:36:15;7.63;;;3.08;;
52618;SDS011;38513;53.234;6.568;2024-03-02T05:38:41;6.80;;;3.00;;
52618;SDS011;38513;53.234;6.568;2024-03-02T05:41:10;7.03;;;3.00;;
52618;SDS011;38513;53.234;6.568;2024-03-02T05:43:38;7.60;;;2.80;;
52618;SDS011;38513;53.234;6.568;2024-03-02T05:46:04;7.28;;;2.78;;
52618;SDS011;38513;53.234;6.568;2024-03-02T05:48:31;7.63;;;3.20;;
52618;SDS011;38513;53.234;6.568;2024-03-02T05:50:57;6.75;;;3.25;;
52618;SDS011;38513;53.234;6.568;2024-03-02T05:53:23;7.20;;;3.30;;
52618;SDS011;38513;53.234;6.568;2024-03-02T05:55:49;6.20;;;2.92;;
52618;SDS011;38513;53.234;6.568;2024-03-02T05:58:20;6.35;;;3.20;;
52618;SDS011;38513;53.234;6.568;2024-03-02T06:00:55;6.45;;;3.20;;
52618;SDS011;38513;53.234;6.568;2024-03-02T06:03:22;6.82;;;3.03;;
52618;SDS011;38513;53.234;6.568;2024-03-02T06:05:50;6.30;;;3.10;;
52618;SDS011;38513;53.234;6.568;2024-03-02T06:08:17;6.63;;;3.13;;
52618;SDS011;38513;53.234;6.568;2024-03-02T06:10:47;7.05;;;3.22;;
52618;SDS011;38513;53.234;6.568;2024-03-02T06:13:21;6.90;;;2.97;;
52618;SDS011;38513;53.234;6.568;2024-03-02T06:15:50;7.43;;;3.10;;
52618;SDS011;38513;53.234;6.568;2024-03-02T06:18:16;6.85;;;3.10;;
52618;SDS011;38513;53.234;6.568;2024-03-02T06:20:43;6.93;;;3.20;;
52618;SDS011;38513;53.234;6.568;2024-03-02T06:23:09;6.50;;;3.30;;
52618;SDS011;38513;53.234;6.568;2024-03-02T06:25:35;9.15;;;3.60;;
52618;SDS011;38513;53.234;6.568;2024-03-02T06:28:06;7.95;;;3.50;;
52618;SDS011;38513;53.234;6.568;2024-03-02T06:30:33;5.77;;;2.93;;
52618;SDS011;38513;53.234;6.568;2024-03-02T06:32:59;7.70;;;3.13;;
52618;SDS011;38513;53.234;6.568;2024-03-02T06:35:25;6.32;;;3.08;;
52618;SDS011;38513;53.234;6.568;2024-03-02T06:37:54;6.82;;;3.45;;
52618;SDS011;38513;53.234;6.568;2024-03-02T06:40:28;7.90;;;3.72;;
52618;SDS011;38513;53.234;6.568;2024-03-02T06:43:30;6.65;;;3.20;;
52618;SDS011;38513;53.234;6.568;2024-03-02T06:46:02;6.20;;;3.05;;
52618;SDS011;38513;53.234;6.568;2024-03-02T06:48:48;6.50;;;3.13;;
52618;SDS011;38513;53.234;6.568;2024-03-02T06:51:15;5.97;;;2.92;;
52618;SDS011;38513;53.234;6.568;2024-03-02T06:53:44;6.95;;;3.15;;
52618;SDS011;38513;53.234;6.568;2024-03-02T06:56:12;5.90;;;3.25;;
52618;SDS011;38513;53.234;6.568;2024-03-02T06:58:41;6.45;;;2.92;;
52618;SDS011;38513;53.234;6.568;2024-03-02T07:01:09;7.32;;;3.30;;
52618;SDS011;38513;53.234;6.568;2024-03-02T07:03:42;7.87;;;2.80;;
52618;SDS011;38513;53.234;6.568;2024-03-02T07:06:25;6.23;;;2.70;;
52618;SDS011;38513;53.234;6.568;2024-03-02T07:08:52;5.95;;;2.75;;
52618;SDS011;38513;53.234;6.568;2024-03-02T07:11:18;6.35;;;2.63;;
52618;SDS011;38513;53.234;6.568;2024-03-02T07:13:45;5.70;;;2.53;;
52618;SDS011;38513;53.234;6.568;2024-03-02T07:16:11;6.63;;;2.58;;
52618;SDS011;38513;53.234;6.568;2024-03-02T07:18:54;5.68;;;2.50;;
52618;SDS011;38513;53.234;6.568;2024-03-02T07:21:22;6.50;;;2.30;;
52618;SDS011;38513;53.234;6.568;2024-03-02T07:23:55;6.20;;;2.20;;
52618;SDS011;38513;53.234;6.568;2024-03-02T07:26:21;5.85;;;2.33;;
52618;SDS011;38513;53.234;6.568;2024-03-02T07:28:48;6.57;;;2.40;;
52618;SDS011;38513;53.234;6.568;2024-03-02T07:31:15;5.55;;;2.42;;
52618;SDS011;38513;53.234;6.568;2024-03-02T07:33:44;6.57;;;2.40;;
52618;SDS011;38513;53.234;6.568;2024-03-02T07:36:14;7.13;;;2.70;;
52618;SDS011;38513;53.234;6.568;2024-03-02T07:38:44;5.38;;;2.25;;
52618;SDS011;38513;53.234;6.568;2024-03-02T07:41:15;5.60;;;2.67;;
52618;SDS011;38513;53.234;6.568;2024-03-02T07:43:50;5.87;;;2.60;;
52618;SDS011;38513;53.234;6.568;2024-03-02T07:46:19;6.53;;;2.80;;
52618;SDS011;38513;53.234;6.568;2024-03-02T07:48:54;5.95;;;2.80;;
52618;SDS011;38513;53.234;6.568;2024-03-02T07:51:35;7.07;;;3.25;;
52618;SDS011;38513;53.234;6.568;2024-03-02T07:54:04;6.38;;;3.13;;
52618;SDS011;38513;53.234;6.568;2024-03-02T07:56:34;6.32;;;2.95;;
52618;SDS011;38513;53.234;6.568;2024-03-02T07:59:01;6.43;;;3.17;;
52618;SDS011;38513;53.234;6.568;2024-03-02T08:01:30;6.55;;;3.13;;
52618;SDS011;38513;53.234;6.568;2024-03-02T08:04:00;7.90;;;3.70;;
52618;SDS011;38513;53.234;6.568;2024-03-02T08:06:30;9.30;;;4.10;;
52618;SDS011;38513;53.234;6.568;2024-03-02T08:09:00;6.87;;;3.60;;
52618;SDS011;38513;53.234;6.568;2024-03-02T08:11:31;6.90;;;3.50;;
52618;SDS011;38513;53.234;6.568;2024-03-02T08:13:58;7.10;;;2.90;;
52618;SDS011;38513;53.234;6.568;2024-03-02T08:16:24;6.18;;;2.63;;
52618;SDS011;38513;53.234;6.568;2024-03-02T08:18:50;5.95;;;2.47;;
52618;SDS011;38513;53.234;6.568;2024-03-02T08:21:22;19.63;;;13.17;;
52618;SDS011;38513;53.234;6.568;2024-03-02T08:23:51;6.65;;;2.88;;
52618;SDS011;38513;53.234;6.568;2024-03-02T08:26:20;5.70;;;2.10;;
52618;SDS011;38513;53.234;6.568;2024-03-02T08:28:52;5.30;;;2.22;;
52618;SDS011;38513;53.234;6.568;2024-03-02T08:31:18;5.88;;;2.20;;
52618;SDS011;38513;53.234;6.568;2024-03-02T08:33:45;6.90;;;2.38;;
52618;SDS011;38513;53.234;6.568;2024-03-02T08:36:11;5.43;;;2.28;;
52618;SDS011;38513;53.234;6.568;2024-03-02T08:38:37;5.20;;;2.30;;
52618;SDS011;38513;53.234;6.568;2024-03-02T08:41:04;6.10;;;2.15;;
52618;SDS011;38513;53.234;6.568;2024-03-02T08:43:30;6.60;;;2.10;;
52618;SDS011;38513;53.234;6.568;2024-03-02T08:45:57;4.45;;;1.80;;
52618;SDS011;38513;53.234;6.568;2024-03-02T08:48:26;5.80;;;2.00;;
52618;SDS011;38513;53.234;6.568;2024-03-02T08:51:01;4.93;;;1.95;;
52618;SDS011;38513;53.234;6.568;2024-03-02T08:53:45;4.70;;;1.90;;
52618;SDS011;38513;53.234;6.568;2024-03-02T08:56:12;6.30;;;1.75;;
52618;SDS011;38513;53.234;6.568;2024-03-02T08:58:47;6.18;;;1.67;;
52618;SDS011;38513;53.234;6.568;2024-03-02T09:01:16;6.25;;;1.63;;
52618;SDS011;38513;53.234;6.568;2024-03-02T09:03:43;5.45;;;1.58;;
52618;SDS011;38513;53.234;6.568;2024-03-02T09:06:12;5.43;;;1.67;;
52618;SDS011;38513;53.234;6.568;2024-03-02T09:08:42;6.15;;;1.60;;
52618;SDS011;38513;53.234;6.568;2024-03-02T09:11:13;5.50;;;1.70;;
52618;SDS011;38513;53.234;6.568;2024-03-02T09:13:39;4.90;;;1.40;;
52618;SDS011;38513;53.234;6.568;2024-03-02T09:16:11;5.95;;;1.33;;
52618;SDS011;38513;53.234;6.568;2024-03-02T09:18:38;5.18;;;1.50;;
52618;SDS011;38513;53.234;6.568;2024-03-02T09:21:07;6.15;;;1.50;;
52618;SDS011;38513;53.234;6.568;2024-03-02T09:23:41;4.15;;;1.50;;
52618;SDS011;38513;53.234;6.568;2024-03-02T09:26:18;5.45;;;1.70;;
52618;SDS011;38513;53.234;6.568;2024-03-02T09:28:51;4.57;;;1.40;;
52618;SDS011;38513;53.234;6.568;2024-03-02T09:31:18;5.07;;;1.50;;
52618;SDS011;38513;53.234;6.568;2024-03-02T09:33:44;4.20;;;1.40;;
52618;SDS011;38513;53.234;6.568;2024-03-02T09:36:20;4.40;;;1.52;;
52618;SDS011;38513;53.234;6.568;2024-03-02T09:38:50;5.25;;;1.55;;
52618;SDS011;38513;53.234;6.568;2024-03-02T09:41:19;4.90;;;1.50;;
52618;SDS011;38513;53.234;6.568;2024-03-02T09:43:46;4.60;;;1.33;;
52618;SDS011;38513;53.234;6.568;2024-03-02T09:46:13;4.47;;;1.30;;
52618;SDS011;38513;53.234;6.568;2024-03-02T09:48:42;5.13;;;1.40;;
52618;SDS011;38513;53.234;6.568;2024-03-02T09:51:13;4.97;;;1.45;;
52618;SDS011;38513;53.234;6.568;2024-03-02T09:53:43;5.90;;;1.50;;
52618;SDS011;38513;53.234;6.568;2024-03-02T09:56:12;5.05;;;1.25;;
52618;SDS011;38513;53.234;6.568;2024-03-02T09:58:38;5.03;;;1.40;;
52618;SDS011;38513;53.234;6.568;2024-03-02T10:01:08;4.13;;;1.08;;
52618;SDS011;38513;53.234;6.568;2024-03-02T10:03:36;4.90;;;1.00;;
52618;SDS011;38513;53.234;6.568;2024-03-02T10:06:32;3.90;;;1.13;;
52618;SDS011;38513;53.234;6.568;2024-03-02T10:09:09;4.72;;;1.20;;
52618;SDS011;38513;53.234;6.568;2024-03-02T10:11:36;3.67;;;1.23;;
52618;SDS011;38513;53.234;6.568;2024-03-02T10:14:12;4.15;;;1.10;;
52618;SDS011;38513;53.234;6.568;2024-03-02T10:16:45;4.47;;;1.23;;
52618;SDS011;38513;53.234;6.568;2024-03-02T10:19:19;5.22;;;1.40;;
52618;SDS011;38513;53.234;6.568;2024-03-02T10:21:56;4.97;;;1.30;;
52618;SDS011;38513;53.234;6.568;2024-03-02T10:24:23;3.60;;;1.08;;
52618;SDS011;38513;53.234;6.568;2024-03-02T10:26:53;4.15;;;1.20;;
52618;SDS011;38513;53.234;6.568;2024-03-02T10:29:29;5.57;;;1.27;;
52618;SDS011;38513;53.234;6.568;2024-03-02T10:32:41;4.55;;;1.20;;
52618;SDS011;38513;53.234;6.568;2024-03-02T10:35:09;5.15;;;1.40;;
52618;SDS011;38513;53.234;6.568;2024-03-02T10:37:38;5.80;;;1.23;;
52618;SDS011;38513;53.234;6.568;2024-03-02T10:40:05;4.65;;;1.15;;
52618;SDS011;38513;53.234;6.568;2024-03-02T10:42:34;5.82;;;1.20;;
52618;SDS011;38513;53.234;6.568;2024-03-02T10:45:04;4.50;;;1.20;;
52618;SDS011;38513;53.234;6.568;2024-03-02T10:47:31;5.25;;;1.20;;
52618;SDS011;38513;53.234;6.568;2024-03-02T10:50:04;4.40;;;1.13;;
52618;SDS011;38513;53.234;6.568;2024-03-02T10:52:38;4.50;;;1.10;;
52618;SDS011;38513;53.234;6.568;2024-03-02T10:55:10;4.38;;;1.08;;
52618;SDS011;38513;53.234;6.568;2024-03-02T11:00:13;4.32;;;1.10;;
52618;SDS011;38513;53.234;6.568;2024-03-02T11:02:56;4.13;;;1.03;;
52618;SDS011;38513;53.234;6.568;2024-03-02T11:05:27;4.15;;;1.20;;
52618;SDS011;38513;53.234;6.568;2024-03-02T11:08:00;3.38;;;1.02;;
52618;SDS011;38513;53.234;6.568;2024-03-02T11:10:33;4.35;;;1.25;;
52618;SDS011;38513;53.234;6.568;2024-03-02T11:13:11;3.70;;;1.10;;
52618;SDS011;38513;53.234;6.568;2024-03-02T11:15:47;5.38;;;1.90;;
52618;SDS011;38513;53.234;6.568;2024-03-02T11:18:13;3.72;;;1.17;;
52618;SDS011;38513;53.234;6.568;2024-03-02T11:20:45;4.57;;;1.25;;
52618;SDS011;38513;53.234;6.568;2024-03-02T11:23:13;4.03;;;1.10;;
52618;SDS011;38513;53.234;6.568;2024-03-02T11:25:45;4.13;;;1.20;;
52618;SDS011;38513;53.234;6.568;2024-03-02T11:28:16;4.30;;;1.03;;
52618;SDS011;38513;53.234;6.568;2024-03-02T11:31:01;5.97;;;1.30;;
52618;SDS011;38513;53.234;6.568;2024-03-02T11:33:38;3.75;;;1.10;;
52618;SDS011;38513;53.234;6.568;2024-03-02T11:36:16;4.40;;;1.30;;
52618;SDS011;38513;53.234;6.568;2024-03-02T11:38:45;3.93;;;1.10;;
52618;SDS011;38513;53.234;6.568;2024-03-02T11:41:21;4.15;;;1.17;;
52618;SDS011;38513;53.234;6.568;2024-03-02T11:44:26;3.78;;;1.10;;
52618;SDS011;38513;53.234;6.568;2024-03-02T11:47:01;5.20;;;2.10;;
52618;SDS011;38513;53.234;6.568;2024-03-02T11:52:04;4.15;;;1.10;;
52618;SDS011;38513;53.234;6.568;2024-03-02T11:54:41;7.05;;;1.40;;
52618;SDS011;38513;53.234;6.568;2024-03-02T12:03:12;7.00;;;1.50;;
52618;SDS011;38513;53.234;6.568;2024-03-02T12:05:57;3.08;;;0.90;;
52618;SDS011;38513;53.234;6.568;2024-03-02T12:08:25;5.18;;;1.10;;
52618;SDS011;38513;53.234;6.568;2024-03-02T12:11:01;7.10;;;1.30;;
52618;SDS011;38513;53.234;6.568;2024-03-02T12:13:52;5.53;;;1.30;;
52618;SDS011;38513;53.234;6.568;2024-03-02T12:16:37;4.00;;;1.03;;
52618;SDS011;38513;53.234;6.568;2024-03-02T12:19:28;4.43;;;1.30;;
52618;SDS011;38513;53.234;6.568;2024-03-02T12:22:04;4.38;;;1.25;;
52618;SDS011;38513;53.234;6.568;2024-03-02T12:27:20;4.05;;;1.02;;
52618;SDS011;38513;53.234;6.568;2024-03-02T12:29:47;4.45;;;1.13;;
52618;SDS011;38513;53.234;6.568;2024-03-02T12:32:14;5.10;;;1.42;;
52618;SDS011;38513;53.234;6.568;2024-03-02T12:34:46;4.05;;;1.17;;
52618;SDS011;38513;53.234;6.568;2024-03-02T12:37:13;4.78;;;1.30;;
52618;SDS011;38513;53.234;6.568;2024-03-02T12:39:43;7.30;;;1.48;;
52618;SDS011;38513;53.234;6.568;2024-03-02T12:45:36;5.82;;;1.60;;
52618;SDS011;38513;53.234;6.568;2024-03-02T12:48:04;4.93;;;1.55;;
52618;SDS011;38513;53.234;6.568;2024-03-02T12:50:34;3.75;;;1.40;;
52618;SDS011;38513;53.234;6.568;2024-03-02T12:56:15;5.28;;;1.38;;
52618;SDS011;38513;53.234;6.568;2024-03-02T13:05:20;5.60;;;1.70;;
52618;SDS011;38513;53.234;6.568;2024-03-02T13:13:26;5.72;;;1.60;;
52618;SDS011;38513;53.234;6.568;2024-03-02T13:18:46;5.28;;;1.60;;
52618;SDS011;38513;53.234;6.568;2024-03-02T13:21:12;5.40;;;1.60;;
52618;SDS011;38513;53.234;6.568;2024-03-02T13:23:41;4.75;;;1.52;;
52618;SDS011;38513;53.234;6.568;2024-03-02T13:26:11;6.22;;;1.92;;
52618;SDS011;38513;53.234;6.568;2024-03-02T13:45:45;7.23;;;3.10;;
52618;SDS011;38513;53.234;6.568;2024-03-02T13:48:33;6.72;;;3.33;;
52618;SDS011;38513;53.234;6.568;2024-03-02T13:54:27;5.45;;;2.97;;
52618;SDS011;38513;53.234;6.568;2024-03-02T14:00:37;6.63;;;3.28;;
52618;SDS011;38513;53.234;6.568;2024-03-02T14:03:33;6.70;;;3.10;;
52618;SDS011;38513;53.234;6.568;2024-03-02T14:06:16;6.10;;;3.00;;
52618;SDS011;38513;53.234;6.568;2024-03-02T14:09:21;5.75;;;2.80;;
52618;SDS011;38513;53.234;6.568;2024-03-02T14:11:54;6.87;;;3.10;;
52618;SDS011;38513;53.234;6.568;2024-03-02T14:24:42;6.07;;;2.72;;
52618;SDS011;38513;53.234;6.568;2024-03-02T14:30:14;5.72;;;2.22;;
52618;SDS011;38513;53.234;6.568;2024-03-02T14:33:10;7.00;;;2.60;;
52618;SDS011;38513;53.234;6.568;2024-03-02T14:59:33;6.10;;;2.10;;
52618;SDS011;38513;53.234;6.568;2024-03-02T15:02:17;5.97;;;1.70;;
